Jonesville, Illinois
Current Conditions -  °F | °C
As of 2:35 AM on Saturday 22 Nov 2014 (Local Time) from KVYS Reporting Station
Haze Haze  
Wind Chill: 26°   Ceiling: 1100
Heat Index: 36°   Visibility: 5mi
Dew Point: 32°   Wind: 15mph
Humidity: 87%   Direction: 190°S
Pressure: 30.1"   Gusts: NA
Location:  41.2837°N, 89.0395°W
Report Text: KVYS 220835Z AUTO 19013KT 5SM BR OVC011 02/00 A3010 RMK AO2 P0001 T00200000
Loading
Personal Weather Stations






























Interactive Weather Map New forecast layout! Learn more

10-Day Weather Forecast

Advertisements
Track Severe Weather on mobile